sensor_id;sensor_type;location;lat;lon;timestamp;P1;durP1;ratioP1;P2;durP2;ratioP2
56363;SDS011;42261;52.094;4.326;2023-03-08T00:01:23;1.67;;;0.70;;
56363;SDS011;42261;52.094;4.326;2023-03-08T00:04:08;6.78;;;1.80;;
56363;SDS011;42261;52.094;4.326;2023-03-08T00:06:53;3.50;;;1.20;;
56363;SDS011;42261;52.094;4.326;2023-03-08T00:09:37;3.38;;;0.70;;
56363;SDS011;42261;52.094;4.326;2023-03-08T00:12:21;2.05;;;1.05;;
56363;SDS011;42261;52.094;4.326;2023-03-08T00:15:09;3.10;;;1.00;;
56363;SDS011;42261;52.094;4.326;2023-03-08T00:20:57;4.75;;;1.08;;
56363;SDS011;42261;52.094;4.326;2023-03-08T00:23:41;3.03;;;0.93;;
56363;SDS011;42261;52.094;4.326;2023-03-08T00:26:27;1.80;;;0.77;;
56363;SDS011;42261;52.094;4.326;2023-03-08T00:29:13;2.33;;;0.77;;
56363;SDS011;42261;52.094;4.326;2023-03-08T00:31:58;2.25;;;0.82;;
56363;SDS011;42261;52.094;4.326;2023-03-08T00:34:42;5.43;;;0.95;;
56363;SDS011;42261;52.094;4.326;2023-03-08T00:37:29;1.30;;;0.57;;
56363;SDS011;42261;52.094;4.326;2023-03-08T00:40:14;2.83;;;0.80;;
56363;SDS011;42261;52.094;4.326;2023-03-08T00:42:59;5.63;;;0.70;;
56363;SDS011;42261;52.094;4.326;2023-03-08T00:45:43;1.70;;;1.25;;
56363;SDS011;42261;52.094;4.326;2023-03-08T00:48:28;1.42;;;0.73;;
56363;SDS011;42261;52.094;4.326;2023-03-08T00:51:13;1.90;;;0.90;;
56363;SDS011;42261;52.094;4.326;2023-03-08T00:53:59;3.50;;;0.95;;
56363;SDS011;42261;52.094;4.326;2023-03-08T00:56:45;2.47;;;0.90;;
56363;SDS011;42261;52.094;4.326;2023-03-08T00:59:32;4.63;;;0.90;;
56363;SDS011;42261;52.094;4.326;2023-03-08T01:02:16;3.30;;;1.00;;
56363;SDS011;42261;52.094;4.326;2023-03-08T01:05:00;3.40;;;1.00;;
56363;SDS011;42261;52.094;4.326;2023-03-08T01:07:45;2.15;;;1.20;;
56363;SDS011;42261;52.094;4.326;2023-03-08T01:10:32;3.20;;;1.23;;
56363;SDS011;42261;52.094;4.326;2023-03-08T01:13:16;4.07;;;1.27;;
56363;SDS011;42261;52.094;4.326;2023-03-08T01:16:02;1.90;;;1.10;;
56363;SDS011;42261;52.094;4.326;2023-03-08T01:18:48;2.75;;;1.35;;
56363;SDS011;42261;52.094;4.326;2023-03-08T01:21:32;1.23;;;0.93;;
56363;SDS011;42261;52.094;4.326;2023-03-08T01:24:16;3.38;;;0.95;;
56363;SDS011;42261;52.094;4.326;2023-03-08T01:27:00;3.25;;;1.17;;
56363;SDS011;42261;52.094;4.326;2023-03-08T01:29:45;2.58;;;1.00;;
56363;SDS011;42261;52.094;4.326;2023-03-08T01:32:29;3.50;;;1.15;;
56363;SDS011;42261;52.094;4.326;2023-03-08T01:35:14;2.28;;;0.98;;
56363;SDS011;42261;52.094;4.326;2023-03-08T01:37:59;1.73;;;1.02;;
56363;SDS011;42261;52.094;4.326;2023-03-08T01:40:43;1.58;;;0.80;;
56363;SDS011;42261;52.094;4.326;2023-03-08T01:43:29;3.38;;;0.82;;
56363;SDS011;42261;52.094;4.326;2023-03-08T01:49:17;1.55;;;0.80;;
56363;SDS011;42261;52.094;4.326;2023-03-08T01:52:04;3.05;;;1.05;;
56363;SDS011;42261;52.094;4.326;2023-03-08T01:54:53;1.98;;;1.10;;
56363;SDS011;42261;52.094;4.326;2023-03-08T01:57:41;5.82;;;0.90;;
56363;SDS011;42261;52.094;4.326;2023-03-08T02:00:29;1.08;;;0.70;;
56363;SDS011;42261;52.094;4.326;2023-03-08T02:03:16;0.52;;;0.50;;
56363;SDS011;42261;52.094;4.326;2023-03-08T02:06:01;1.30;;;0.70;;
56363;SDS011;42261;52.094;4.326;2023-03-08T02:08:47;2.15;;;0.50;;
56363;SDS011;42261;52.094;4.326;2023-03-08T02:11:32;1.75;;;0.40;;
56363;SDS011;42261;52.094;4.326;2023-03-08T02:14:21;1.98;;;0.60;;
56363;SDS011;42261;52.094;4.326;2023-03-08T02:17:05;4.17;;;0.60;;
56363;SDS011;42261;52.094;4.326;2023-03-08T02:22:37;1.35;;;0.43;;
56363;SDS011;42261;52.094;4.326;2023-03-08T02:25:25;3.17;;;0.63;;
56363;SDS011;42261;52.094;4.326;2023-03-08T02:28:11;2.47;;;0.47;;
56363;SDS011;42261;52.094;4.326;2023-03-08T02:30:56;3.38;;;0.52;;
56363;SDS011;42261;52.094;4.326;2023-03-08T02:33:41;2.10;;;0.50;;
56363;SDS011;42261;52.094;4.326;2023-03-08T02:36:28;2.53;;;0.60;;
56363;SDS011;42261;52.094;4.326;2023-03-08T02:39:14;3.20;;;0.43;;
56363;SDS011;42261;52.094;4.326;2023-03-08T02:41:59;1.20;;;0.55;;
56363;SDS011;42261;52.094;4.326;2023-03-08T02:44:43;4.93;;;1.23;;
56363;SDS011;42261;52.094;4.326;2023-03-08T02:47:28;1.23;;;0.65;;
56363;SDS011;42261;52.094;4.326;2023-03-08T02:50:14;2.20;;;0.50;;
56363;SDS011;42261;52.094;4.326;2023-03-08T02:52:58;2.90;;;1.27;;
56363;SDS011;42261;52.094;4.326;2023-03-08T02:55:42;1.88;;;0.50;;
56363;SDS011;42261;52.094;4.326;2023-03-08T02:58:26;4.50;;;0.60;;
56363;SDS011;42261;52.094;4.326;2023-03-08T03:01:11;2.40;;;0.70;;
56363;SDS011;42261;52.094;4.326;2023-03-08T03:03:56;3.75;;;0.77;;
56363;SDS011;42261;52.094;4.326;2023-03-08T03:06:51;0.40;;;0.30;;
56363;SDS011;42261;52.094;4.326;2023-03-08T03:09:35;1.70;;;0.50;;
56363;SDS011;42261;52.094;4.326;2023-03-08T03:12:25;2.03;;;0.47;;
56363;SDS011;42261;52.094;4.326;2023-03-08T03:15:11;1.92;;;0.40;;
56363;SDS011;42261;52.094;4.326;2023-03-08T03:17:55;2.35;;;0.50;;
56363;SDS011;42261;52.094;4.326;2023-03-08T03:20:40;1.95;;;0.60;;
56363;SDS011;42261;52.094;4.326;2023-03-08T03:23:24;7.90;;;0.70;;
56363;SDS011;42261;52.094;4.326;2023-03-08T03:26:09;5.43;;;1.63;;
56363;SDS011;42261;52.094;4.326;2023-03-08T03:28:58;1.00;;;0.50;;
56363;SDS011;42261;52.094;4.326;2023-03-08T03:31:42;1.35;;;0.50;;
56363;SDS011;42261;52.094;4.326;2023-03-08T03:34:26;0.75;;;0.50;;
56363;SDS011;42261;52.094;4.326;2023-03-08T03:37:15;1.98;;;0.50;;
56363;SDS011;42261;52.094;4.326;2023-03-08T03:39:59;1.42;;;0.60;;
56363;SDS011;42261;52.094;4.326;2023-03-08T03:42:47;0.82;;;0.40;;
56363;SDS011;42261;52.094;4.326;2023-03-08T03:45:32;1.52;;;0.60;;
56363;SDS011;42261;52.094;4.326;2023-03-08T03:48:16;5.20;;;1.13;;
56363;SDS011;42261;52.094;4.326;2023-03-08T03:51:05;4.15;;;1.08;;
56363;SDS011;42261;52.094;4.326;2023-03-08T03:53:54;1.80;;;0.73;;
56363;SDS011;42261;52.094;4.326;2023-03-08T03:56:43;2.15;;;0.80;;
56363;SDS011;42261;52.094;4.326;2023-03-08T03:59:30;2.03;;;0.95;;
56363;SDS011;42261;52.094;4.326;2023-03-08T04:02:16;2.63;;;0.90;;
56363;SDS011;42261;52.094;4.326;2023-03-08T04:07:52;2.47;;;0.90;;
56363;SDS011;42261;52.094;4.326;2023-03-08T04:10:38;2.67;;;0.90;;
56363;SDS011;42261;52.094;4.326;2023-03-08T04:13:24;2.83;;;0.88;;
56363;SDS011;42261;52.094;4.326;2023-03-08T04:16:14;2.08;;;0.90;;
56363;SDS011;42261;52.094;4.326;2023-03-08T04:19:02;4.28;;;0.90;;
56363;SDS011;42261;52.094;4.326;2023-03-08T04:24:36;4.68;;;1.00;;
56363;SDS011;42261;52.094;4.326;2023-03-08T04:27:20;2.88;;;1.35;;
56363;SDS011;42261;52.094;4.326;2023-03-08T04:30:06;2.28;;;1.20;;
56363;SDS011;42261;52.094;4.326;2023-03-08T04:32:50;2.13;;;1.48;;
56363;SDS011;42261;52.094;4.326;2023-03-08T04:35:49;4.65;;;1.60;;
56363;SDS011;42261;52.094;4.326;2023-03-08T04:38:33;8.45;;;2.20;;
56363;SDS011;42261;52.094;4.326;2023-03-08T04:41:18;5.55;;;2.10;;
56363;SDS011;42261;52.094;4.326;2023-03-08T04:44:07;4.72;;;2.03;;
56363;SDS011;42261;52.094;4.326;2023-03-08T04:46:52;5.65;;;2.28;;
56363;SDS011;42261;52.094;4.326;2023-03-08T04:49:36;3.00;;;2.67;;
56363;SDS011;42261;52.094;4.326;2023-03-08T04:52:23;3.13;;;1.50;;
56363;SDS011;42261;52.094;4.326;2023-03-08T04:55:08;4.13;;;2.22;;
56363;SDS011;42261;52.094;4.326;2023-03-08T04:57:52;4.47;;;2.17;;
56363;SDS011;42261;52.094;4.326;2023-03-08T05:00:37;4.13;;;2.30;;
56363;SDS011;42261;52.094;4.326;2023-03-08T05:03:23;2.90;;;2.20;;
56363;SDS011;42261;52.094;4.326;2023-03-08T05:06:11;2.22;;;1.67;;
56363;SDS011;42261;52.094;4.326;2023-03-08T05:08:59;4.80;;;2.38;;
56363;SDS011;42261;52.094;4.326;2023-03-08T05:11:43;2.67;;;1.80;;
56363;SDS011;42261;52.094;4.326;2023-03-08T05:14:27;2.63;;;1.80;;
56363;SDS011;42261;52.094;4.326;2023-03-08T05:17:11;4.10;;;1.60;;
56363;SDS011;42261;52.094;4.326;2023-03-08T05:19:55;3.00;;;1.45;;
56363;SDS011;42261;52.094;4.326;2023-03-08T05:22:41;2.63;;;1.30;;
56363;SDS011;42261;52.094;4.326;2023-03-08T05:25:26;2.63;;;1.40;;
56363;SDS011;42261;52.094;4.326;2023-03-08T05:28:10;3.30;;;1.50;;
56363;SDS011;42261;52.094;4.326;2023-03-08T05:30:59;3.28;;;1.58;;
56363;SDS011;42261;52.094;4.326;2023-03-08T05:33:45;3.38;;;1.52;;
56363;SDS011;42261;52.094;4.326;2023-03-08T05:36:31;3.08;;;1.60;;
56363;SDS011;42261;52.094;4.326;2023-03-08T05:39:16;3.47;;;1.38;;
56363;SDS011;42261;52.094;4.326;2023-03-08T05:42:00;7.07;;;1.58;;
56363;SDS011;42261;52.094;4.326;2023-03-08T05:44:45;3.42;;;1.25;;
56363;SDS011;42261;52.094;4.326;2023-03-08T05:47:35;2.95;;;1.50;;
56363;SDS011;42261;52.094;4.326;2023-03-08T05:50:20;7.63;;;1.75;;
56363;SDS011;42261;52.094;4.326;2023-03-08T05:53:05;2.35;;;1.20;;
56363;SDS011;42261;52.094;4.326;2023-03-08T05:55:50;2.75;;;1.60;;
56363;SDS011;42261;52.094;4.326;2023-03-08T06:01:26;2.40;;;1.65;;
56363;SDS011;42261;52.094;4.326;2023-03-08T06:04:10;3.83;;;1.90;;
56363;SDS011;42261;52.094;4.326;2023-03-08T06:06:56;2.70;;;1.80;;
56363;SDS011;42261;52.094;4.326;2023-03-08T06:09:41;8.18;;;2.75;;
56363;SDS011;42261;52.094;4.326;2023-03-08T06:12:34;5.82;;;2.55;;
56363;SDS011;42261;52.094;4.326;2023-03-08T06:15:20;8.55;;;3.75;;
56363;SDS011;42261;52.094;4.326;2023-03-08T06:18:04;8.55;;;4.45;;
56363;SDS011;42261;52.094;4.326;2023-03-08T06:23:42;7.80;;;4.05;;
56363;SDS011;42261;52.094;4.326;2023-03-08T06:26:26;8.52;;;4.65;;
56363;SDS011;42261;52.094;4.326;2023-03-08T06:29:12;10.30;;;4.53;;
56363;SDS011;42261;52.094;4.326;2023-03-08T06:31:56;8.48;;;4.78;;
56363;SDS011;42261;52.094;4.326;2023-03-08T06:34:40;14.00;;;5.93;;
56363;SDS011;42261;52.094;4.326;2023-03-08T06:37:31;11.02;;;6.25;;
56363;SDS011;42261;52.094;4.326;2023-03-08T06:40:15;13.98;;;7.05;;
56363;SDS011;42261;52.094;4.326;2023-03-08T06:43:00;14.70;;;7.95;;
56363;SDS011;42261;52.094;4.326;2023-03-08T06:45:46;14.45;;;6.72;;
56363;SDS011;42261;52.094;4.326;2023-03-08T06:48:31;15.68;;;7.38;;
56363;SDS011;42261;52.094;4.326;2023-03-08T06:51:17;15.18;;;8.13;;
56363;SDS011;42261;52.094;4.326;2023-03-08T06:54:02;20.52;;;10.25;;
56363;SDS011;42261;52.094;4.326;2023-03-08T06:56:47;15.73;;;8.85;;
56363;SDS011;42261;52.094;4.326;2023-03-08T06:59:31;16.48;;;9.20;;
56363;SDS011;42261;52.094;4.326;2023-03-08T07:02:15;21.50;;;9.68;;
56363;SDS011;42261;52.094;4.326;2023-03-08T07:04:59;15.68;;;9.32;;
56363;SDS011;42261;52.094;4.326;2023-03-08T07:07:44;17.30;;;9.38;;
56363;SDS011;42261;52.094;4.326;2023-03-08T07:10:28;16.20;;;9.30;;
56363;SDS011;42261;52.094;4.326;2023-03-08T07:13:15;18.67;;;9.73;;
56363;SDS011;42261;52.094;4.326;2023-03-08T07:16:05;18.67;;;9.43;;
56363;SDS011;42261;52.094;4.326;2023-03-08T07:18:50;20.33;;;10.57;;
56363;SDS011;42261;52.094;4.326;2023-03-08T07:21:35;19.70;;;10.27;;
56363;SDS011;42261;52.094;4.326;2023-03-08T07:24:20;19.60;;;10.02;;
56363;SDS011;42261;52.094;4.326;2023-03-08T07:27:04;20.13;;;10.55;;
56363;SDS011;42261;52.094;4.326;2023-03-08T07:29:48;21.98;;;10.93;;
56363;SDS011;42261;52.094;4.326;2023-03-08T07:32:32;20.67;;;11.32;;
56363;SDS011;42261;52.094;4.326;2023-03-08T07:35:19;26.50;;;11.45;;
56363;SDS011;42261;52.094;4.326;2023-03-08T07:38:07;23.45;;;12.15;;
56363;SDS011;42261;52.094;4.326;2023-03-08T07:40:54;20.63;;;10.23;;
56363;SDS011;42261;52.094;4.326;2023-03-08T07:43:40;23.45;;;10.95;;
56363;SDS011;42261;52.094;4.326;2023-03-08T07:46:24;28.23;;;11.65;;
56363;SDS011;42261;52.094;4.326;2023-03-08T07:49:08;24.98;;;11.85;;
56363;SDS011;42261;52.094;4.326;2023-03-08T07:51:55;23.30;;;11.93;;
56363;SDS011;42261;52.094;4.326;2023-03-08T07:54:39;24.05;;;11.90;;
56363;SDS011;42261;52.094;4.326;2023-03-08T07:57:23;26.17;;;12.05;;
56363;SDS011;42261;52.094;4.326;2023-03-08T08:00:08;32.72;;;14.40;;
56363;SDS011;42261;52.094;4.326;2023-03-08T08:02:53;29.52;;;14.45;;
56363;SDS011;42261;52.094;4.326;2023-03-08T08:05:38;27.45;;;12.40;;
56363;SDS011;42261;52.094;4.326;2023-03-08T08:08:24;29.05;;;13.20;;
56363;SDS011;42261;52.094;4.326;2023-03-08T08:13:56;25.90;;;14.30;;
56363;SDS011;42261;52.094;4.326;2023-03-08T08:16:41;32.47;;;14.43;;
56363;SDS011;42261;52.094;4.326;2023-03-08T08:19:25;28.35;;;14.43;;
56363;SDS011;42261;52.094;4.326;2023-03-08T08:22:11;35.55;;;15.00;;
56363;SDS011;42261;52.094;4.326;2023-03-08T08:24:57;34.17;;;15.90;;
56363;SDS011;42261;52.094;4.326;2023-03-08T08:27:41;38.85;;;15.70;;
56363;SDS011;42261;52.094;4.326;2023-03-08T08:30:29;38.67;;;15.93;;
56363;SDS011;42261;52.094;4.326;2023-03-08T08:33:15;39.75;;;16.98;;
56363;SDS011;42261;52.094;4.326;2023-03-08T08:36:02;29.65;;;13.35;;
56363;SDS011;42261;52.094;4.326;2023-03-08T08:38:48;33.58;;;13.38;;
56363;SDS011;42261;52.094;4.326;2023-03-08T08:41:41;27.60;;;12.95;;
56363;SDS011;42261;52.094;4.326;2023-03-08T08:44:27;27.30;;;12.77;;
56363;SDS011;42261;52.094;4.326;2023-03-08T08:47:12;33.80;;;12.93;;
56363;SDS011;42261;52.094;4.326;2023-03-08T08:49:56;31.98;;;13.00;;
56363;SDS011;42261;52.094;4.326;2023-03-08T08:52:40;25.95;;;11.43;;
56363;SDS011;42261;52.094;4.326;2023-03-08T08:55:24;24.73;;;11.48;;
56363;SDS011;42261;52.094;4.326;2023-03-08T08:58:08;26.90;;;11.25;;
56363;SDS011;42261;52.094;4.326;2023-03-08T09:00:54;26.48;;;11.70;;
56363;SDS011;42261;52.094;4.326;2023-03-08T09:03:40;24.70;;;11.63;;
56363;SDS011;42261;52.094;4.326;2023-03-08T09:06:27;24.45;;;11.30;;
56363;SDS011;42261;52.094;4.326;2023-03-08T09:09:16;24.70;;;10.23;;
56363;SDS011;42261;52.094;4.326;2023-03-08T09:12:01;22.45;;;10.95;;
56363;SDS011;42261;52.094;4.326;2023-03-08T09:14:47;29.02;;;11.00;;
56363;SDS011;42261;52.094;4.326;2023-03-08T09:17:31;20.60;;;9.43;;
56363;SDS011;42261;52.094;4.326;2023-03-08T09:20:16;19.17;;;9.15;;
56363;SDS011;42261;52.094;4.326;2023-03-08T09:23:01;20.85;;;10.23;;
56363;SDS011;42261;52.094;4.326;2023-03-08T09:25:53;20.80;;;10.30;;
56363;SDS011;42261;52.094;4.326;2023-03-08T09:28:40;23.35;;;10.07;;
56363;SDS011;42261;52.094;4.326;2023-03-08T09:31:28;22.58;;;10.63;;
56363;SDS011;42261;52.094;4.326;2023-03-08T09:34:12;22.30;;;10.23;;
56363;SDS011;42261;52.094;4.326;2023-03-08T09:36:57;21.25;;;10.02;;
56363;SDS011;42261;52.094;4.326;2023-03-08T09:39:51;20.08;;;9.63;;
56363;SDS011;42261;52.094;4.326;2023-03-08T09:45:26;21.98;;;10.60;;
56363;SDS011;42261;52.094;4.326;2023-03-08T09:48:16;20.50;;;10.73;;
56363;SDS011;42261;52.094;4.326;2023-03-08T09:51:03;23.55;;;10.25;;
56363;SDS011;42261;52.094;4.326;2023-03-08T09:53:59;23.88;;;10.10;;
56363;SDS011;42261;52.094;4.326;2023-03-08T09:56:49;25.35;;;10.63;;
56363;SDS011;42261;52.094;4.326;2023-03-08T09:59:52;19.85;;;10.15;;
56363;SDS011;42261;52.094;4.326;2023-03-08T10:02:46;23.33;;;10.50;;
56363;SDS011;42261;52.094;4.326;2023-03-08T10:08:34;19.83;;;9.38;;
56363;SDS011;42261;52.094;4.326;2023-03-08T10:11:27;21.35;;;9.30;;
56363;SDS011;42261;52.094;4.326;2023-03-08T10:14:18;23.30;;;10.18;;
56363;SDS011;42261;52.094;4.326;2023-03-08T10:17:18;22.83;;;10.60;;
56363;SDS011;42261;52.094;4.326;2023-03-08T10:20:17;20.17;;;9.85;;
56363;SDS011;42261;52.094;4.326;2023-03-08T10:23:09;20.63;;;10.20;;
56363;SDS011;42261;52.094;4.326;2023-03-08T10:25:55;20.08;;;9.70;;
56363;SDS011;42261;52.094;4.326;2023-03-08T10:28:39;17.77;;;8.75;;
56363;SDS011;42261;52.094;4.326;2023-03-08T10:31:30;19.45;;;8.60;;
56363;SDS011;42261;52.094;4.326;2023-03-08T10:34:18;17.42;;;8.57;;
56363;SDS011;42261;52.094;4.326;2023-03-08T10:37:03;15.38;;;8.27;;
56363;SDS011;42261;52.094;4.326;2023-03-08T10:39:50;18.52;;;7.68;;
56363;SDS011;42261;52.094;4.326;2023-03-08T10:42:36;15.85;;;8.30;;
56363;SDS011;42261;52.094;4.326;2023-03-08T10:45:20;13.65;;;7.20;;
56363;SDS011;42261;52.094;4.326;2023-03-08T10:48:05;17.25;;;7.15;;
56363;SDS011;42261;52.094;4.326;2023-03-08T10:50:56;14.45;;;7.50;;
56363;SDS011;42261;52.094;4.326;2023-03-08T10:53:50;12.60;;;6.65;;
56363;SDS011;42261;52.094;4.326;2023-03-08T10:59:28;16.33;;;8.25;;
56363;SDS011;42261;52.094;4.326;2023-03-08T11:02:17;17.13;;;7.72;;
56363;SDS011;42261;52.094;4.326;2023-03-08T11:08:19;16.88;;;8.20;;
56363;SDS011;42261;52.094;4.326;2023-03-08T11:11:10;13.35;;;6.82;;
56363;SDS011;42261;52.094;4.326;2023-03-08T11:13:55;10.93;;;5.95;;
56363;SDS011;42261;52.094;4.326;2023-03-08T11:28:29;10.25;;;4.80;;
56363;SDS011;42261;52.094;4.326;2023-03-08T11:31:18;9.77;;;5.55;;
56363;SDS011;42261;52.094;4.326;2023-03-08T11:46:06;11.30;;;5.18;;
56363;SDS011;42261;52.094;4.326;2023-03-08T11:52:31;11.20;;;5.30;;
56363;SDS011;42261;52.094;4.326;2023-03-08T12:03:50;12.60;;;5.18;;
56363;SDS011;42261;52.094;4.326;2023-03-08T12:06:40;11.27;;;4.78;;
56363;SDS011;42261;52.094;4.326;2023-03-08T12:12:15;11.25;;;4.63;;
56363;SDS011;42261;52.094;4.326;2023-03-08T12:15:13;14.52;;;5.35;;
56363;SDS011;42261;52.094;4.326;2023-03-08T12:18:17;16.00;;;5.57;;
56363;SDS011;42261;52.094;4.326;2023-03-08T12:21:08;12.75;;;5.15;;
56363;SDS011;42261;52.094;4.326;2023-03-08T12:27:31;13.20;;;5.72;;
56363;SDS011;42261;52.094;4.326;2023-03-08T12:33:04;9.75;;;4.18;;
56363;SDS011;42261;52.094;4.326;2023-03-08T12:35:53;13.00;;;5.00;;
56363;SDS011;42261;52.094;4.326;2023-03-08T12:38:40;9.90;;;4.65;;
56363;SDS011;42261;52.094;4.326;2023-03-08T12:41:30;12.32;;;4.65;;
56363;SDS011;42261;52.094;4.326;2023-03-08T12:44:22;14.88;;;5.05;;
56363;SDS011;42261;52.094;4.326;2023-03-08T12:47:25;13.35;;;5.75;;
56363;SDS011;42261;52.094;4.326;2023-03-08T12:50:09;13.52;;;5.63;;
56363;SDS011;42261;52.094;4.326;2023-03-08T12:52:59;13.57;;;5.68;;
56363;SDS011;42261;52.094;4.326;2023-03-08T12:55:43;9.00;;;4.53;;
56363;SDS011;42261;52.094;4.326;2023-03-08T12:58:28;13.98;;;5.53;;
56363;SDS011;42261;52.094;4.326;2023-03-08T13:01:30;13.82;;;5.65;;
56363;SDS011;42261;52.094;4.326;2023-03-08T13:04:27;14.00;;;6.45;;
56363;SDS011;42261;52.094;4.326;2023-03-08T13:10:29;16.08;;;6.45;;
56363;SDS011;42261;52.094;4.326;2023-03-08T13:16:28;16.63;;;6.20;;
56363;SDS011;42261;52.094;4.326;2023-03-08T13:22:04;12.25;;;6.30;;
56363;SDS011;42261;52.094;4.326;2023-03-08T13:24:56;16.08;;;6.57;;
56363;SDS011;42261;52.094;4.326;2023-03-08T13:30:32;13.48;;;4.60;;
56363;SDS011;42261;52.094;4.326;2023-03-08T13:33:25;15.55;;;6.70;;
56363;SDS011;42261;52.094;4.326;2023-03-08T13:36:22;12.60;;;5.53;;
56363;SDS011;42261;52.094;4.326;2023-03-08T13:39:18;14.88;;;4.97;;
56363;SDS011;42261;52.094;4.326;2023-03-08T13:42:06;14.07;;;5.00;;
56363;SDS011;42261;52.094;4.326;2023-03-08T13:44:51;11.73;;;5.20;;
56363;SDS011;42261;52.094;4.326;2023-03-08T13:47:37;14.10;;;4.50;;
56363;SDS011;42261;52.094;4.326;2023-03-08T13:53:08;12.18;;;4.05;;
56363;SDS011;42261;52.094;4.326;2023-03-08T13:55:54;11.10;;;4.30;;
56363;SDS011;42261;52.094;4.326;2023-03-08T13:58:46;10.40;;;4.30;;
56363;SDS011;42261;52.094;4.326;2023-03-08T14:01:33;10.57;;;4.45;;
56363;SDS011;42261;52.094;4.326;2023-03-08T14:04:21;10.88;;;4.15;;
56363;SDS011;42261;52.094;4.326;2023-03-08T14:10:13;11.77;;;4.70;;
56363;SDS011;42261;52.094;4.326;2023-03-08T14:12:57;11.13;;;4.70;;
56363;SDS011;42261;52.094;4.326;2023-03-08T14:15:48;16.10;;;6.05;;
56363;SDS011;42261;52.094;4.326;2023-03-08T14:21:22;14.25;;;5.30;;
56363;SDS011;42261;52.094;4.326;2023-03-08T14:24:14;12.13;;;5.55;;
56363;SDS011;42261;52.094;4.326;2023-03-08T14:27:05;11.75;;;5.47;;
56363;SDS011;42261;52.094;4.326;2023-03-08T14:29:58;34.20;;;11.93;;
56363;SDS011;42261;52.094;4.326;2023-03-08T14:32:54;24.50;;;7.65;;
56363;SDS011;42261;52.094;4.326;2023-03-08T14:35:40;17.13;;;5.90;;
56363;SDS011;42261;52.094;4.326;2023-03-08T14:38:27;13.70;;;5.53;;
56363;SDS011;42261;52.094;4.326;2023-03-08T14:41:12;11.00;;;4.55;;
56363;SDS011;42261;52.094;4.326;2023-03-08T14:43:59;13.93;;;5.43;;
56363;SDS011;42261;52.094;4.326;2023-03-08T14:46:43;13.30;;;5.70;;
56363;SDS011;42261;52.094;4.326;2023-03-08T14:49:28;16.10;;;5.63;;
56363;SDS011;42261;52.094;4.326;2023-03-08T14:52:19;13.57;;;5.43;;
56363;SDS011;42261;52.094;4.326;2023-03-08T14:55:15;13.38;;;4.95;;
56363;SDS011;42261;52.094;4.326;2023-03-08T14:58:11;16.80;;;5.55;;
56363;SDS011;42261;52.094;4.326;2023-03-08T15:00:56;12.73;;;4.80;;
56363;SDS011;42261;52.094;4.326;2023-03-08T15:03:41;14.05;;;5.75;;
56363;SDS011;42261;52.094;4.326;2023-03-08T15:06:29;17.67;;;6.60;;
56363;SDS011;42261;52.094;4.326;2023-03-08T15:09:15;15.95;;;6.15;;
56363;SDS011;42261;52.094;4.326;2023-03-08T15:12:00;13.80;;;6.22;;
56363;SDS011;42261;52.094;4.326;2023-03-08T15:14:45;12.73;;;5.65;;
56363;SDS011;42261;52.094;4.326;2023-03-08T15:17:29;14.68;;;5.50;;
56363;SDS011;42261;52.094;4.326;2023-03-08T15:20:14;16.88;;;6.00;;
56363;SDS011;42261;52.094;4.326;2023-03-08T15:22:58;14.18;;;6.63;;
56363;SDS011;42261;52.094;4.326;2023-03-08T15:25:46;15.98;;;6.78;;
56363;SDS011;42261;52.094;4.326;2023-03-08T15:28:31;17.42;;;6.30;;
56363;SDS011;42261;52.094;4.326;2023-03-08T15:31:16;15.70;;;5.85;;
56363;SDS011;42261;52.094;4.326;2023-03-08T15:34:04;18.05;;;7.18;;
56363;SDS011;42261;52.094;4.326;2023-03-08T15:36:50;14.60;;;5.63;;
56363;SDS011;42261;52.094;4.326;2023-03-08T15:39:41;16.30;;;6.15;;
56363;SDS011;42261;52.094;4.326;2023-03-08T15:42:26;19.48;;;6.05;;
56363;SDS011;42261;52.094;4.326;2023-03-08T15:45:10;14.90;;;6.80;;
56363;SDS011;42261;52.094;4.326;2023-03-08T15:47:59;15.30;;;6.22;;
56363;SDS011;42261;52.094;4.326;2023-03-08T15:50:44;14.98;;;6.88;;
56363;SDS011;42261;52.094;4.326;2023-03-08T15:53:28;15.98;;;5.93;;
56363;SDS011;42261;52.094;4.326;2023-03-08T15:56:13;19.88;;;7.63;;
56363;SDS011;42261;52.094;4.326;2023-03-08T15:58:57;17.88;;;8.00;;
56363;SDS011;42261;52.094;4.326;2023-03-08T16:01:42;21.58;;;8.35;;
56363;SDS011;42261;52.094;4.326;2023-03-08T16:04:29;16.52;;;6.07;;
56363;SDS011;42261;52.094;4.326;2023-03-08T16:07:15;18.63;;;7.25;;
56363;SDS011;42261;52.094;4.326;2023-03-08T16:10:00;19.02;;;8.20;;
56363;SDS011;42261;52.094;4.326;2023-03-08T16:12:46;19.33;;;8.98;;
56363;SDS011;42261;52.094;4.326;2023-03-08T16:15:31;21.33;;;8.10;;
56363;SDS011;42261;52.094;4.326;2023-03-08T16:18:15;23.13;;;8.88;;
56363;SDS011;42261;52.094;4.326;2023-03-08T16:20:59;19.65;;;8.40;;
56363;SDS011;42261;52.094;4.326;2023-03-08T16:23:45;22.52;;;9.82;;
56363;SDS011;42261;52.094;4.326;2023-03-08T16:26:29;20.90;;;8.95;;
56363;SDS011;42261;52.094;4.326;2023-03-08T16:29:13;26.65;;;11.20;;
56363;SDS011;42261;52.094;4.326;2023-03-08T16:31:58;23.55;;;8.52;;
56363;SDS011;42261;52.094;4.326;2023-03-08T16:34:42;17.15;;;7.57;;
56363;SDS011;42261;52.094;4.326;2023-03-08T16:37:27;17.70;;;7.38;;
56363;SDS011;42261;52.094;4.326;2023-03-08T16:40:14;14.50;;;5.78;;
56363;SDS011;42261;52.094;4.326;2023-03-08T16:42:58;14.27;;;5.72;;
56363;SDS011;42261;52.094;4.326;2023-03-08T16:45:55;13.10;;;5.38;;
56363;SDS011;42261;52.094;4.326;2023-03-08T16:48:39;16.98;;;6.40;;
56363;SDS011;42261;52.094;4.326;2023-03-08T16:51:25;15.35;;;5.18;;
56363;SDS011;42261;52.094;4.326;2023-03-08T16:54:10;16.15;;;7.80;;
56363;SDS011;42261;52.094;4.326;2023-03-08T16:56:58;11.68;;;4.65;;
56363;SDS011;42261;52.094;4.326;2023-03-08T16:59:43;16.97;;;7.63;;
56363;SDS011;42261;52.094;4.326;2023-03-08T17:02:27;16.60;;;6.13;;
56363;SDS011;42261;52.094;4.326;2023-03-08T17:05:11;15.20;;;5.65;;
56363;SDS011;42261;52.094;4.326;2023-03-08T17:07:57;12.05;;;5.00;;
56363;SDS011;42261;52.094;4.326;2023-03-08T17:10:42;13.93;;;5.30;;
56363;SDS011;42261;52.094;4.326;2023-03-08T17:13:28;14.40;;;6.18;;
56363;SDS011;42261;52.094;4.326;2023-03-08T17:16:12;13.23;;;5.28;;
56363;SDS011;42261;52.094;4.326;2023-03-08T17:18:57;11.85;;;5.50;;
56363;SDS011;42261;52.094;4.326;2023-03-08T17:21:42;12.63;;;6.00;;
56363;SDS011;42261;52.094;4.326;2023-03-08T17:24:29;15.25;;;6.70;;
56363;SDS011;42261;52.094;4.326;2023-03-08T17:30:03;16.48;;;6.18;;
56363;SDS011;42261;52.094;4.326;2023-03-08T17:32:48;14.65;;;6.47;;
56363;SDS011;42261;52.094;4.326;2023-03-08T17:35:32;12.18;;;6.03;;
56363;SDS011;42261;52.094;4.326;2023-03-08T17:38:21;15.85;;;6.78;;
56363;SDS011;42261;52.094;4.326;2023-03-08T17:41:08;19.65;;;8.52;;
56363;SDS011;42261;52.094;4.326;2023-03-08T17:43:52;23.63;;;8.88;;
56363;SDS011;42261;52.094;4.326;2023-03-08T17:46:38;14.10;;;7.47;;
56363;SDS011;42261;52.094;4.326;2023-03-08T17:49:23;15.00;;;6.68;;
56363;SDS011;42261;52.094;4.326;2023-03-08T17:52:07;17.73;;;7.55;;
56363;SDS011;42261;52.094;4.326;2023-03-08T17:54:52;18.48;;;7.82;;
56363;SDS011;42261;52.094;4.326;2023-03-08T17:57:37;18.17;;;7.90;;
56363;SDS011;42261;52.094;4.326;2023-03-08T18:00:21;18.92;;;7.00;;
56363;SDS011;42261;52.094;4.326;2023-03-08T18:03:13;20.10;;;8.25;;
56363;SDS011;42261;52.094;4.326;2023-03-08T18:05:57;20.33;;;9.13;;
56363;SDS011;42261;52.094;4.326;2023-03-08T18:08:44;20.33;;;8.63;;
56363;SDS011;42261;52.094;4.326;2023-03-08T18:11:29;21.85;;;9.27;;
56363;SDS011;42261;52.094;4.326;2023-03-08T18:14:21;23.00;;;8.50;;
56363;SDS011;42261;52.094;4.326;2023-03-08T18:17:05;19.27;;;9.27;;